Time;durP1;ratioP1;P1;durP2;ratioP2;P2;SDS_P1;SDS_P2;PMS_P1;PMS_P2;Temp;Humidity;BMP_temperature;BMP_pressure;BME280_temperature;BME280_humidity;BME280_pressure;Samples;Min_cycle;Max_cycle;Signal;HPM_P1;HPM_P2
2023/03/23 00:00:32;;;;;;;6.60;4.47;;;;;;;;;;4936839;29;20842;-65
2023/03/23 00:03:01;;;;;;;4.17;3.77;;;;;;;;;;4937101;29;20884;-64
2023/03/23 00:05:28;;;;;;;4.70;4.40;;;;;;;;;;4937112;29;20452;-64
2023/03/23 00:07:55;;;;;;;5.40;4.60;;;;;;;;;;4937035;29;20908;-64
2023/03/23 00:10:24;;;;;;;5.20;4.90;;;;;;;;;;4937121;29;20532;-64
2023/03/23 00:12:50;;;;;;;4.17;4.07;;;;;;;;;;4937410;29;20442;-64
2023/03/23 00:15:16;;;;;;;5.40;4.57;;;;;;;;;;4936140;29;20448;-64
2023/03/23 00:17:46;;;;;;;4.57;4.27;;;;;;;;;;4937200;29;20421;-64
2023/03/23 00:20:12;;;;;;;5.27;4.70;;;;;;;;;;4936802;29;20571;-64
2023/03/23 00:22:38;;;;;;;6.73;4.70;;;;;;;;;;4937517;29;20966;-63
2023/03/23 00:25:05;;;;;;;4.80;4.53;;;;;;;;;;4937405;29;20416;-64
2023/03/23 00:27:31;;;;;;;4.50;4.30;;;;;;;;;;4936604;29;20504;-64
2023/03/23 00:29:57;;;;;;;4.73;4.40;;;;;;;;;;4937088;29;20447;-64
2023/03/23 00:32:28;;;;;;;6.00;5.50;;;;;;;;;;4936845;29;20547;-64
2023/03/23 00:35:01;;;;;;;5.00;4.70;;;;;;;;;;4935565;29;20486;-64
2023/03/23 00:37:27;;;;;;;5.23;4.93;;;;;;;;;;4936537;29;20532;-64
2023/03/23 00:39:57;;;;;;;3.70;3.43;;;;;;;;;;4936466;29;20755;-64
2023/03/23 00:42:23;;;;;;;2.63;2.53;;;;;;;;;;4936249;29;20841;-65
2023/03/23 00:44:49;;;;;;;2.53;2.43;;;;;;;;;;4936593;29;20427;-65
2023/03/23 00:47:17;;;;;;;4.30;2.40;;;;;;;;;;4936596;29;20427;-64
2023/03/23 00:49:43;;;;;;;4.93;1.60;;;;;;;;;;4936661;29;20420;-64
2023/03/23 00:52:10;;;;;;;1.70;1.70;;;;;;;;;;4935128;29;20771;-67
2023/03/23 00:54:37;;;;;;;2.30;1.80;;;;;;;;;;4935673;29;21005;-64
2023/03/23 00:57:03;;;;;;;2.60;2.00;;;;;;;;;;4935764;29;20426;-64
2023/03/23 00:59:29;;;;;;;2.83;2.00;;;;;;;;;;4934302;29;20486;-63
2023/03/23 01:01:58;;;;;;;1.90;1.80;;;;;;;;;;4934537;29;20473;-64
2023/03/23 01:04:24;;;;;;;1.53;1.53;;;;;;;;;;4936033;29;20486;-64
2023/03/23 01:06:51;;;;;;;1.80;1.70;;;;;;;;;;4935389;29;20419;-64
2023/03/23 01:09:19;;;;;;;2.30;2.00;;;;;;;;;;4935872;29;20450;-63
2023/03/23 01:11:45;;;;;;;2.00;1.90;;;;;;;;;;4935575;29;20505;-63
2023/03/23 01:14:14;;;;;;;1.77;1.63;;;;;;;;;;4935758;29;20431;-63
2023/03/23 01:16:40;;;;;;;2.17;2.00;;;;;;;;;;4935409;29;20443;-63
2023/03/23 01:19:09;;;;;;;1.70;1.70;;;;;;;;;;4935512;29;20489;-65
2023/03/23 01:21:35;;;;;;;1.40;1.30;;;;;;;;;;4934668;29;20435;-64
2023/03/23 01:24:01;;;;;;;1.53;1.53;;;;;;;;;;4935660;29;20431;-64
2023/03/23 01:26:28;;;;;;;1.57;1.50;;;;;;;;;;4934541;29;20426;-64
2023/03/23 01:28:54;;;;;;;1.40;1.30;;;;;;;;;;4934179;29;20446;-64
2023/03/23 01:31:22;;;;;;;1.33;1.33;;;;;;;;;;4935440;29;20415;-64
2023/03/23 01:33:54;;;;;;;1.53;1.43;;;;;;;;;;4934670;29;20529;-64
2023/03/23 01:36:21;;;;;;;1.30;1.30;;;;;;;;;;4933968;29;20482;-64
2023/03/23 01:38:48;;;;;;;1.60;1.50;;;;;;;;;;4935011;29;20864;-64
2023/03/23 01:41:15;;;;;;;1.37;1.27;;;;;;;;;;4935421;29;20414;-64
2023/03/23 01:43:57;;;;;;;1.10;1.10;;;;;;;;;;4934961;29;20423;-64
2023/03/23 01:46:26;;;;;;;2.43;1.30;;;;;;;;;;4935438;29;20422;-63
2023/03/23 01:48:54;;;;;;;4.27;1.40;;;;;;;;;;4933830;29;20794;-63
2023/03/23 01:51:21;;;;;;;1.60;1.30;;;;;;;;;;4934348;29;20503;-63
2023/03/23 01:53:53;;;;;;;1.67;1.57;;;;;;;;;;4935116;29;20937;-64
2023/03/23 01:56:20;;;;;;;1.40;1.40;;;;;;;;;;4935148;29;20976;-64
2023/03/23 01:58:46;;;;;;;2.00;1.40;;;;;;;;;;4934678;29;20422;-63
2023/03/23 02:01:16;;;;;;;2.57;1.90;;;;;;;;;;4934813;29;20447;-63
2023/03/23 02:03:43;;;;;;;1.87;1.20;;;;;;;;;;4934772;29;20499;-63
2023/03/23 02:06:09;;;;;;;1.20;1.20;;;;;;;;;;4934686;29;20498;-64
2023/03/23 02:08:36;;;;;;;6.80;1.60;;;;;;;;;;4934493;29;20470;-63
2023/03/23 02:11:02;;;;;;;1.50;1.50;;;;;;;;;;4934416;29;20415;-63
2023/03/23 02:13:28;;;;;;;2.03;1.50;;;;;;;;;;4934582;29;20416;-64
2023/03/23 02:15:54;;;;;;;1.67;1.57;;;;;;;;;;4934037;29;20504;-64
2023/03/23 02:18:26;;;;;;;2.30;1.23;;;;;;;;;;4934031;29;20526;-64
2023/03/23 02:21:09;;;;;;;1.33;1.33;;;;;;;;;;4934467;29;20478;-64
2023/03/23 02:23:35;;;;;;;5.83;1.47;;;;;;;;;;4934373;29;20423;-64
2023/03/23 02:26:12;;;;;;;1.60;1.33;;;;;;;;;;4934382;29;20416;-63
2023/03/23 02:28:59;;;;;;;4.10;1.60;;;;;;;;;;4933875;29;20451;-63
2023/03/23 02:31:38;;;;;;;1.47;1.47;;;;;;;;;;4934341;29;20412;-63
2023/03/23 02:34:22;;;;;;;2.57;1.70;;;;;;;;;;4934205;29;20433;-63
2023/03/23 02:37:00;;;;;;;1.67;1.50;;;;;;;;;;4934129;29;20442;-63
2023/03/23 02:39:31;;;;;;;1.63;1.63;;;;;;;;;;4935827;29;21000;-63
2023/03/23 02:42:01;;;;;;;2.50;1.50;;;;;;;;;;4938481;29;20421;-63
2023/03/23 02:44:29;;;;;;;1.60;1.50;;;;;;;;;;4938374;29;20423;-63
2023/03/23 02:46:56;;;;;;;1.53;1.53;;;;;;;;;;4937993;29;20458;-64
2023/03/23 02:49:23;;;;;;;1.10;1.10;;;;;;;;;;4938134;29;20454;-64
2023/03/23 02:51:49;;;;;;;1.23;1.23;;;;;;;;;;4938482;29;20447;-64
2023/03/23 02:54:17;;;;;;;1.80;1.47;;;;;;;;;;4938584;29;20419;-64
2023/03/23 02:56:44;;;;;;;2.20;1.57;;;;;;;;;;4938581;29;20478;-64
2023/03/23 02:59:10;;;;;;;3.90;1.67;;;;;;;;;;4938347;29;20565;-64
2023/03/23 03:01:36;;;;;;;1.20;1.10;;;;;;;;;;4937890;29;20506;-64
2023/03/23 03:04:12;;;;;;;1.60;1.60;;;;;;;;;;4938217;29;20422;-64
2023/03/23 03:06:41;;;;;;;1.30;1.30;;;;;;;;;;4936454;29;20411;-64
2023/03/23 03:09:14;;;;;;;1.43;1.43;;;;;;;;;;4938059;29;20490;-64
2023/03/23 03:11:43;;;;;;;1.63;1.63;;;;;;;;;;4937740;29;20474;-64
2023/03/23 03:14:11;;;;;;;1.20;1.20;;;;;;;;;;4937547;29;20443;-64
2023/03/23 03:16:37;;;;;;;1.30;1.30;;;;;;;;;;4937255;29;20438;-64
2023/03/23 03:19:05;;;;;;;1.47;1.40;;;;;;;;;;4937501;29;20469;-64
2023/03/23 03:21:34;;;;;;;1.20;1.20;;;;;;;;;;4937447;29;20503;-64
2023/03/23 03:24:02;;;;;;;2.63;1.20;;;;;;;;;;4936282;29;21062;-64
2023/03/23 03:26:30;;;;;;;1.37;1.37;;;;;;;;;;4937699;29;20426;-64
2023/03/23 03:28:59;;;;;;;1.63;1.30;;;;;;;;;;4937490;29;20422;-64
2023/03/23 03:31:31;;;;;;;1.10;1.10;;;;;;;;;;4937096;29;20459;-65
2023/03/23 03:34:01;;;;;;;1.80;1.70;;;;;;;;;;4937452;29;20425;-64
2023/03/23 03:36:34;;;;;;;1.33;1.33;;;;;;;;;;4937133;29;20458;-64
2023/03/23 03:39:07;;;;;;;1.83;1.73;;;;;;;;;;4937528;29;20910;-64
2023/03/23 03:41:33;;;;;;;1.37;1.37;;;;;;;;;;4937130;29;20448;-64
2023/03/23 03:44:00;;;;;;;1.23;1.13;;;;;;;;;;4937550;29;20418;-64
2023/03/23 03:46:29;;;;;;;1.37;1.37;;;;;;;;;;4937345;29;20452;-64
2023/03/23 03:48:57;;;;;;;1.37;1.37;;;;;;;;;;4937269;29;20773;-64
2023/03/23 03:51:24;;;;;;;1.47;1.37;;;;;;;;;;4937153;29;20420;-64
2023/03/23 03:53:50;;;;;;;1.50;1.50;;;;;;;;;;4937286;29;20499;-64
2023/03/23 03:56:16;;;;;;;1.50;1.37;;;;;;;;;;4936906;29;20420;-64
2023/03/23 03:58:42;;;;;;;1.50;1.50;;;;;;;;;;4936900;29;20424;-64
2023/03/23 04:01:11;;;;;;;1.30;1.30;;;;;;;;;;4935628;29;20424;-64
2023/03/23 04:03:37;;;;;;;1.23;1.17;;;;;;;;;;4935753;29;20522;-64
2023/03/23 04:06:05;;;;;;;4.93;1.53;;;;;;;;;;4936027;29;20423;-64
2023/03/23 04:08:32;;;;;;;1.23;1.23;;;;;;;;;;4936901;29;20471;-64
2023/03/23 04:10:58;;;;;;;4.83;1.40;;;;;;;;;;4936425;29;20787;-64
2023/03/23 04:13:24;;;;;;;1.33;1.33;;;;;;;;;;4936865;29;20424;-63
2023/03/23 04:15:52;;;;;;;1.50;1.43;;;;;;;;;;4936955;29;20586;-64
2023/03/23 04:18:22;;;;;;;1.20;1.20;;;;;;;;;;4936503;29;20427;-63
2023/03/23 04:20:49;;;;;;;1.50;1.50;;;;;;;;;;4936395;29;20860;-64
2023/03/23 04:23:19;;;;;;;2.50;1.47;;;;;;;;;;4936206;29;20420;-64
2023/03/23 04:25:46;;;;;;;1.63;1.63;;;;;;;;;;4936840;29;20432;-64
2023/03/23 04:28:12;;;;;;;1.20;1.20;;;;;;;;;;4936193;29;20426;-64
2023/03/23 04:30:42;;;;;;;1.20;1.20;;;;;;;;;;4936834;29;20913;-65
2023/03/23 04:33:14;;;;;;;1.57;1.47;;;;;;;;;;4935004;29;20781;-64
2023/03/23 04:35:41;;;;;;;1.83;1.60;;;;;;;;;;4936409;29;20448;-64
2023/03/23 04:38:07;;;;;;;1.53;1.43;;;;;;;;;;4936173;29;20438;-65
2023/03/23 04:40:35;;;;;;;1.27;1.27;;;;;;;;;;4936012;29;20466;-64
2023/03/23 04:43:05;;;;;;;1.70;1.60;;;;;;;;;;4936151;29;20416;-64
2023/03/23 04:45:31;;;;;;;1.63;1.63;;;;;;;;;;4935952;29;20845;-64
2023/03/23 04:47:57;;;;;;;4.33;1.37;;;;;;;;;;4935775;29;20447;-64
2023/03/23 04:50:24;;;;;;;2.17;2.03;;;;;;;;;;4935700;29;20463;-64
2023/03/23 04:52:51;;;;;;;3.80;1.40;;;;;;;;;;4935715;29;20838;-64
2023/03/23 04:55:18;;;;;;;1.43;1.43;;;;;;;;;;4935896;29;20416;-64
2023/03/23 04:57:44;;;;;;;1.77;1.60;;;;;;;;;;4935912;29;20430;-63
2023/03/23 05:00:16;;;;;;;3.30;1.77;;;;;;;;;;4936012;29;20479;-63
2023/03/23 05:02:42;;;;;;;1.30;1.30;;;;;;;;;;4935079;29;20645;-63
2023/03/23 05:05:10;;;;;;;7.23;6.10;;;;;;;;;;4935960;29;20417;-63
2023/03/23 05:07:37;;;;;;;1.93;1.93;;;;;;;;;;4935495;29;20451;-63
2023/03/23 05:10:03;;;;;;;1.63;1.63;;;;;;;;;;4935636;29;20455;-63
2023/03/23 05:12:29;;;;;;;2.30;1.73;;;;;;;;;;4935785;29;20427;-63
2023/03/23 05:14:55;;;;;;;2.33;1.93;;;;;;;;;;4935552;29;20416;-63
2023/03/23 05:17:23;;;;;;;3.83;2.23;;;;;;;;;;4935737;29;20427;-63
2023/03/23 05:19:50;;;;;;;4.10;1.87;;;;;;;;;;4935495;29;20462;-63
2023/03/23 05:22:16;;;;;;;1.97;1.87;;;;;;;;;;4935529;29;20579;-64
2023/03/23 05:24:42;;;;;;;2.10;2.10;;;;;;;;;;4934116;29;20423;-63
2023/03/23 05:27:08;;;;;;;2.20;2.20;;;;;;;;;;4935630;29;20474;-63
2023/03/23 05:29:36;;;;;;;2.80;1.90;;;;;;;;;;4935097;29;20494;-64
2023/03/23 05:32:03;;;;;;;3.23;1.87;;;;;;;;;;4935040;29;20454;-64
2023/03/23 05:34:32;;;;;;;1.80;1.80;;;;;;;;;;4935419;29;20437;-63
2023/03/23 05:36:58;;;;;;;2.00;1.90;;;;;;;;;;4935550;29;20463;-63
2023/03/23 05:39:24;;;;;;;2.30;2.20;;;;;;;;;;4935083;29;20771;-63
2023/03/23 05:41:50;;;;;;;3.50;2.03;;;;;;;;;;4935638;29;20419;-63
2023/03/23 05:44:16;;;;;;;4.00;1.90;;;;;;;;;;4935173;29;20423;-64
2023/03/23 05:46:43;;;;;;;5.43;2.40;;;;;;;;;;4935545;29;20415;-65
2023/03/23 05:49:09;;;;;;;2.40;2.00;;;;;;;;;;4936026;29;20507;-64
2023/03/23 05:51:35;;;;;;;1.87;1.77;;;;;;;;;;4934070;29;20435;-64
2023/03/23 05:54:01;;;;;;;2.90;1.90;;;;;;;;;;4935173;29;20454;-63
2023/03/23 05:56:30;;;;;;;2.27;2.17;;;;;;;;;;4935281;29;20438;-63
2023/03/23 05:58:56;;;;;;;1.97;1.93;;;;;;;;;;4935708;29;20445;-63
2023/03/23 06:01:23;;;;;;;11.87;9.27;;;;;;;;;;4935352;29;20794;-63
2023/03/23 06:03:51;;;;;;;2.30;2.20;;;;;;;;;;4935360;29;20428;-63
2023/03/23 06:06:18;;;;;;;2.70;2.60;;;;;;;;;;4935285;29;20663;-63
2023/03/23 06:08:44;;;;;;;3.80;2.33;;;;;;;;;;4935769;29;20414;-63
2023/03/23 06:11:10;;;;;;;2.83;2.63;;;;;;;;;;4935300;29;20443;-63
2023/03/23 06:13:36;;;;;;;8.37;2.40;;;;;;;;;;4934884;29;20418;-63
2023/03/23 06:16:03;;;;;;;2.50;2.30;;;;;;;;;;4934230;29;20422;-63
2023/03/23 06:18:33;;;;;;;2.80;2.70;;;;;;;;;;4935183;29;20518;-63
2023/03/23 06:20:59;;;;;;;2.60;2.50;;;;;;;;;;4935054;29;20486;-63
2023/03/23 06:23:26;;;;;;;2.87;2.13;;;;;;;;;;4934889;29;20797;-63
2023/03/23 06:25:54;;;;;;;2.73;2.60;;;;;;;;;;4935031;29;20454;-62
2023/03/23 06:28:20;;;;;;;7.43;2.00;;;;;;;;;;4933814;29;20446;-63
2023/03/23 06:30:46;;;;;;;2.80;2.30;;;;;;;;;;4935261;29;20435;-62
2023/03/23 06:33:15;;;;;;;2.40;2.20;;;;;;;;;;4935170;29;20447;-62
2023/03/23 06:35:41;;;;;;;2.50;2.40;;;;;;;;;;4935012;29;20921;-61
2023/03/23 06:38:07;;;;;;;4.63;2.60;;;;;;;;;;4935151;29;20517;-62
2023/03/23 06:40:33;;;;;;;2.50;2.30;;;;;;;;;;4934930;29;20988;-62
2023/03/23 06:42:59;;;;;;;2.30;2.10;;;;;;;;;;4934952;29;20418;-62
2023/03/23 06:45:25;;;;;;;2.37;2.17;;;;;;;;;;4935008;29;20938;-62
2023/03/23 06:47:53;;;;;;;2.57;2.37;;;;;;;;;;4934934;29;20833;-62
2023/03/23 06:50:21;;;;;;;4.37;2.27;;;;;;;;;;4934880;29;20989;-62
2023/03/23 06:52:48;;;;;;;3.00;2.80;;;;;;;;;;4934959;29;20495;-62
2023/03/23 06:55:17;;;;;;;2.30;2.20;;;;;;;;;;4934730;29;20422;-62
2023/03/23 06:57:43;;;;;;;2.57;2.57;;;;;;;;;;4934991;29;20420;-62
2023/03/23 07:00:13;;;;;;;2.33;2.23;;;;;;;;;;4934977;29;20470;-62
2023/03/23 07:02:42;;;;;;;2.57;2.43;;;;;;;;;;4934987;29;20441;-62
2023/03/23 07:05:09;;;;;;;2.77;2.57;;;;;;;;;;4934678;29;20411;-62
2023/03/23 07:07:39;;;;;;;2.17;2.07;;;;;;;;;;4935012;29;20415;-62
2023/03/23 07:10:09;;;;;;;2.53;2.37;;;;;;;;;;4934792;29;20423;-62
2023/03/23 07:12:36;;;;;;;2.47;2.37;;;;;;;;;;4934776;29;20443;-62
2023/03/23 07:15:09;;;;;;;3.00;2.80;;;;;;;;;;4934804;29;20919;-62
2023/03/23 07:17:35;;;;;;;2.30;2.20;;;;;;;;;;4934723;29;20426;-62
2023/03/23 07:20:02;;;;;;;3.77;2.20;;;;;;;;;;4934328;29;20470;-62
2023/03/23 07:22:28;;;;;;;2.57;2.40;;;;;;;;;;4933460;29;20422;-62
2023/03/23 07:24:54;;;;;;;4.50;2.53;;;;;;;;;;4935780;29;20970;-62
2023/03/23 07:27:20;;;;;;;2.47;2.37;;;;;;;;;;4938148;29;20426;-62
2023/03/23 07:29:46;;;;;;;2.50;2.40;;;;;;;;;;4938086;29;20422;-62
2023/03/23 07:32:12;;;;;;;15.67;2.23;;;;;;;;;;4938143;29;20923;-62
2023/03/23 07:34:38;;;;;;;2.43;2.33;;;;;;;;;;4936888;29;20422;-62
2023/03/23 07:37:07;;;;;;;2.43;2.37;;;;;;;;;;4938133;29;20922;-62
2023/03/23 07:39:36;;;;;;;2.63;2.43;;;;;;;;;;4937975;29;20484;-62
2023/03/23 07:42:01;;;;;;;2.27;2.17;;;;;;;;;;4938229;29;20921;-61
2023/03/23 07:44:27;;;;;;;2.27;2.27;;;;;;;;;;4937938;29;20461;-61
2023/03/23 07:46:53;;;;;;;2.50;2.40;;;;;;;;;;4937806;29;20464;-61
2023/03/23 07:49:20;;;;;;;2.53;2.43;;;;;;;;;;4937890;29;20427;-61
2023/03/23 07:51:49;;;;;;;2.47;2.27;;;;;;;;;;4937820;29;20421;-61
2023/03/23 07:54:16;;;;;;;2.47;2.47;;;;;;;;;;4937785;29;20509;-61
2023/03/23 07:56:43;;;;;;;1.90;1.80;;;;;;;;;;4937629;29;20446;-62
2023/03/23 07:59:12;;;;;;;3.00;2.80;;;;;;;;;;4937928;29;20464;-61
2023/03/23 08:01:40;;;;;;;2.20;2.20;;;;;;;;;;4937761;29;20451;-61
2023/03/23 08:04:08;;;;;;;2.47;2.37;;;;;;;;;;4937806;29;20417;-61
2023/03/23 08:06:35;;;;;;;2.93;2.30;;;;;;;;;;4937442;29;20410;-62
2023/03/23 08:09:03;;;;;;;3.17;2.70;;;;;;;;;;4937480;29;20424;-62
2023/03/23 08:11:31;;;;;;;2.90;2.10;;;;;;;;;;4937431;29;20422;-62
2023/03/23 08:13:57;;;;;;;2.30;2.20;;;;;;;;;;4937154;29;20822;-61
2023/03/23 08:16:25;;;;;;;3.30;2.83;;;;;;;;;;4937203;29;20489;-61
2023/03/23 08:18:51;;;;;;;2.70;2.60;;;;;;;;;;4935797;29;20472;-62
2023/03/23 08:21:17;;;;;;;3.27;2.10;;;;;;;;;;4937140;29;20402;-62
2023/03/23 08:23:46;;;;;;;2.70;2.57;;;;;;;;;;4937258;29;20437;-62
2023/03/23 08:26:15;;;;;;;2.60;2.50;;;;;;;;;;4936937;29;20417;-62
2023/03/23 08:28:42;;;;;;;2.50;2.20;;;;;;;;;;4936807;29;20447;-62
2023/03/23 08:31:10;;;;;;;3.13;2.30;;;;;;;;;;4937191;29;20476;-62
2023/03/23 08:33:36;;;;;;;2.57;2.37;;;;;;;;;;4937573;29;20875;-62
2023/03/23 08:36:02;;;;;;;2.90;2.80;;;;;;;;;;4935266;29;20481;-62
2023/03/23 08:38:29;;;;;;;2.70;2.60;;;;;;;;;;4937339;29;20420;-62
2023/03/23 08:40:59;;;;;;;3.30;3.00;;;;;;;;;;4937458;29;20552;-63
2023/03/23 08:43:27;;;;;;;2.33;2.27;;;;;;;;;;4937334;29;20814;-63
2023/03/23 08:45:53;;;;;;;2.73;2.67;;;;;;;;;;4937163;29;20445;-63
2023/03/23 08:48:19;;;;;;;2.97;2.77;;;;;;;;;;4935739;29;20430;-63
2023/03/23 08:50:48;;;;;;;2.63;2.50;;;;;;;;;;4936977;29;20495;-62
2023/03/23 08:53:16;;;;;;;2.93;2.77;;;;;;;;;;4936838;29;20417;-63
2023/03/23 08:55:42;;;;;;;3.37;3.10;;;;;;;;;;4936806;29;20472;-64
2023/03/23 08:58:09;;;;;;;3.83;3.70;;;;;;;;;;4936440;29;20421;-64
2023/03/23 09:00:35;;;;;;;3.10;3.00;;;;;;;;;;4935889;29;20604;-64
2023/03/23 09:03:01;;;;;;;2.70;2.60;;;;;;;;;;4936573;29;20410;-64
2023/03/23 09:05:30;;;;;;;2.17;2.07;;;;;;;;;;4936546;29;20442;-64
2023/03/23 09:08:01;;;;;;;2.53;2.43;;;;;;;;;;4936082;29;20504;-64
2023/03/23 09:10:28;;;;;;;2.47;2.33;;;;;;;;;;4935467;29;20445;-64
2023/03/23 09:12:54;;;;;;;2.70;2.57;;;;;;;;;;4936021;29;20407;-64
2023/03/23 09:15:21;;;;;;;4.50;2.00;;;;;;;;;;4935808;29;20415;-64
2023/03/23 09:17:50;;;;;;;2.47;2.20;;;;;;;;;;4936458;29;20897;-64
2023/03/23 09:20:20;;;;;;;2.60;2.40;;;;;;;;;;4935670;29;20470;-64
2023/03/23 09:22:47;;;;;;;2.30;2.20;;;;;;;;;;4935987;29;20451;-64
2023/03/23 09:25:15;;;;;;;2.13;2.03;;;;;;;;;;4935887;29;20426;-64
2023/03/23 09:27:42;;;;;;;2.40;2.27;;;;;;;;;;4935941;29;20474;-65
2023/03/23 09:30:10;;;;;;;1.53;1.53;;;;;;;;;;4936174;29;20482;-64
2023/03/23 09:32:36;;;;;;;2.60;2.10;;;;;;;;;;4936399;29;20476;-64
2023/03/23 09:35:03;;;;;;;2.30;2.20;;;;;;;;;;4936226;29;20910;-64
2023/03/23 09:37:29;;;;;;;2.13;2.13;;;;;;;;;;4935829;29;20439;-64
2023/03/23 09:39:56;;;;;;;1.97;1.97;;;;;;;;;;4935875;29;20475;-64
2023/03/23 09:42:34;;;;;;;1.70;1.70;;;;;;;;;;4935794;29;20426;-64
2023/03/23 09:45:03;;;;;;;2.00;1.90;;;;;;;;;;4936194;29;20462;-66
2023/03/23 09:47:49;;;;;;;1.90;1.90;;;;;;;;;;4935970;29;20417;-66
2023/03/23 09:50:18;;;;;;;1.90;1.80;;;;;;;;;;4936288;29;20904;-66
2023/03/23 09:52:55;;;;;;;3.13;1.77;;;;;;;;;;4934877;29;20788;-66
2023/03/23 09:55:21;;;;;;;2.70;2.50;;;;;;;;;;4936011;29;20843;-66
2023/03/23 09:57:52;;;;;;;2.37;2.27;;;;;;;;;;4936115;29;20434;-66
2023/03/23 10:00:21;;;;;;;2.20;2.10;;;;;;;;;;4935913;29;20890;-65
2023/03/23 10:02:53;;;;;;;1.93;1.83;;;;;;;;;;4936309;29;20922;-66
2023/03/23 10:05:19;;;;;;;1.90;1.80;;;;;;;;;;4936149;29;20415;-66
2023/03/23 10:07:45;;;;;;;2.00;1.90;;;;;;;;;;4936179;29;20526;-66
2023/03/23 10:10:13;;;;;;;2.53;1.83;;;;;;;;;;4936291;29;20432;-66
2023/03/23 10:12:39;;;;;;;1.90;1.80;;;;;;;;;;4935980;29;20498;-66
2023/03/23 10:15:05;;;;;;;1.73;1.73;;;;;;;;;;4936169;29;20408;-65
2023/03/23 10:17:38;;;;;;;1.73;1.73;;;;;;;;;;4935578;29;20439;-65
2023/03/23 10:20:09;;;;;;;1.67;1.67;;;;;;;;;;4935580;29;20982;-65
2023/03/23 10:22:39;;;;;;;2.00;1.90;;;;;;;;;;4935639;29;20522;-66
2023/03/23 10:25:11;;;;;;;1.30;1.30;;;;;;;;;;4935633;29;20419;-64
2023/03/23 10:27:43;;;;;;;1.77;1.70;;;;;;;;;;4935217;29;20934;-65
2023/03/23 10:30:22;;;;;;;2.00;1.90;;;;;;;;;;4934352;29;20430;-65
2023/03/23 10:33:03;;;;;;;2.20;2.10;;;;;;;;;;4935970;29;20484;-64
2023/03/23 10:35:32;;;;;;;2.60;1.77;;;;;;;;;;4935575;29;20921;-65
2023/03/23 10:38:03;;;;;;;1.73;1.63;;;;;;;;;;4935527;29;20455;-66
2023/03/23 10:40:34;;;;;;;1.50;1.50;;;;;;;;;;4935388;29;20473;-65
2023/03/23 10:43:00;;;;;;;1.80;1.70;;;;;;;;;;4934081;29;20436;-64
2023/03/23 10:45:32;;;;;;;1.97;1.77;;;;;;;;;;4935710;29;20776;-65
2023/03/23 10:48:25;;;;;;;2.10;2.10;;;;;;;;;;4935425;29;20424;-65
2023/03/23 10:50:53;;;;;;;1.80;1.80;;;;;;;;;;4935526;29;20484;-65
2023/03/23 10:53:28;;;;;;;2.10;2.00;;;;;;;;;;4935452;29;20432;-64
2023/03/23 10:55:58;;;;;;;2.20;2.10;;;;;;;;;;4934192;29;20887;-64
2023/03/23 10:58:31;;;;;;;2.20;2.20;;;;;;;;;;4935064;29;20566;-65
2023/03/23 11:01:00;;;;;;;1.90;1.80;;;;;;;;;;4937922;29;20835;-64
2023/03/23 11:03:36;;;;;;;2.00;1.90;;;;;;;;;;4938413;29;20920;-64
2023/03/23 11:06:04;;;;;;;2.37;1.70;;;;;;;;;;4939117;29;20443;-65
2023/03/23 11:08:34;;;;;;;1.93;1.83;;;;;;;;;;4938695;29;20429;-65
2023/03/23 11:11:16;;;;;;;1.63;1.63;;;;;;;;;;4939363;29;20769;-64
2023/03/23 11:13:51;;;;;;;1.70;1.60;;;;;;;;;;4938775;29;20907;-64
2023/03/23 11:16:27;;;;;;;2.10;1.90;;;;;;;;;;4938960;29;20410;-65
2023/03/23 11:18:53;;;;;;;1.97;1.87;;;;;;;;;;4939309;29;20424;-65
2023/03/23 11:21:21;;;;;;;2.20;1.80;;;;;;;;;;4939032;29;20516;-66
2023/03/23 11:23:54;;;;;;;1.73;1.60;;;;;;;;;;4938600;29;20924;-65
2023/03/23 11:26:20;;;;;;;3.63;1.80;;;;;;;;;;4938707;29;20428;-65
2023/03/23 11:29:02;;;;;;;2.10;1.90;;;;;;;;;;4937913;29;20428;-65
2023/03/23 11:31:36;;;;;;;2.40;2.07;;;;;;;;;;4938532;29;20428;-65
2023/03/23 11:34:04;;;;;;;4.10;2.07;;;;;;;;;;4938094;29;20425;-65
2023/03/23 11:36:41;;;;;;;1.80;1.70;;;;;;;;;;4938346;29;20825;-65
2023/03/23 11:39:28;;;;;;;2.27;1.90;;;;;;;;;;4938443;29;20414;-64
2023/03/23 11:41:55;;;;;;;2.50;1.80;;;;;;;;;;4938017;29;20419;-64
2023/03/23 11:44:22;;;;;;;3.17;1.90;;;;;;;;;;4938064;29;20476;-64
2023/03/23 11:47:08;;;;;;;1.70;1.60;;;;;;;;;;4937659;29;20428;-63
2023/03/23 11:49:40;;;;;;;1.83;1.73;;;;;;;;;;4937789;29;20431;-64
2023/03/23 11:52:28;;;;;;;3.07;1.67;;;;;;;;;;4937289;29;20422;-64
2023/03/23 11:54:58;;;;;;;1.83;1.73;;;;;;;;;;4938025;29;20414;-64
2023/03/23 11:57:24;;;;;;;1.80;1.70;;;;;;;;;;4937976;29;20502;-64
2023/03/23 11:59:51;;;;;;;5.30;1.90;;;;;;;;;;4937742;29;20472;-64
2023/03/23 12:02:20;;;;;;;1.97;1.87;;;;;;;;;;4937765;29;20409;-63
2023/03/23 12:04:52;;;;;;;2.10;1.83;;;;;;;;;;4936351;29;20425;-64
2023/03/23 12:07:22;;;;;;;2.23;2.10;;;;;;;;;;4936473;29;20945;-64
2023/03/23 12:09:54;;;;;;;2.23;2.13;;;;;;;;;;4937872;29;20415;-63
2023/03/23 12:12:23;;;;;;;2.40;2.10;;;;;;;;;;4936289;29;20422;-64
2023/03/23 12:14:58;;;;;;;1.73;1.63;;;;;;;;;;4937573;29;20428;-63
2023/03/23 12:17:42;;;;;;;2.30;2.10;;;;;;;;;;4937675;29;20413;-63
2023/03/23 12:20:27;;;;;;;2.00;2.00;;;;;;;;;;4937524;29;20550;-64
2023/03/23 12:22:55;;;;;;;2.10;1.90;;;;;;;;;;4937422;29;20524;-63
2023/03/23 12:25:22;;;;;;;3.13;1.90;;;;;;;;;;4937490;29;20410;-63
2023/03/23 12:27:50;;;;;;;2.20;2.10;;;;;;;;;;4937460;29;20805;-63
2023/03/23 12:30:36;;;;;;;2.27;2.13;;;;;;;;;;4937437;29;20635;-63
2023/03/23 12:33:14;;;;;;;1.70;1.70;;;;;;;;;;4936014;29;20449;-63
2023/03/23 12:35:40;;;;;;;1.80;1.80;;;;;;;;;;4937062;29;20447;-63
2023/03/23 12:38:21;;;;;;;2.30;2.20;;;;;;;;;;4937222;29;20561;-63
2023/03/23 12:41:07;;;;;;;2.07;1.97;;;;;;;;;;4937122;29;20976;-63
2023/03/23 12:43:41;;;;;;;1.73;1.73;;;;;;;;;;4937064;29;20436;-63
2023/03/23 12:46:13;;;;;;;3.13;1.90;;;;;;;;;;4935748;29;20664;-63
2023/03/23 12:48:44;;;;;;;1.83;1.73;;;;;;;;;;4937051;29;20444;-63
2023/03/23 12:51:31;;;;;;;2.10;1.87;;;;;;;;;;4936937;29;20416;-63
2023/03/23 12:54:02;;;;;;;1.90;1.90;;;;;;;;;;4936648;29;20453;-63
2023/03/23 12:56:32;;;;;;;2.43;2.33;;;;;;;;;;4936578;29;20463;-63
2023/03/23 12:59:12;;;;;;;1.80;1.70;;;;;;;;;;4936691;29;20557;-63
2023/03/23 13:01:40;;;;;;;2.03;1.93;;;;;;;;;;4937434;29;20427;-63
2023/03/23 13:04:09;;;;;;;2.10;2.00;;;;;;;;;;4936529;29;20870;-63
2023/03/23 13:06:40;;;;;;;2.07;1.97;;;;;;;;;;4937001;29;20414;-63
2023/03/23 13:09:11;;;;;;;1.50;1.50;;;;;;;;;;4936390;29;20414;-63
2023/03/23 13:11:38;;;;;;;2.30;1.80;;;;;;;;;;4936581;29;20560;-63
2023/03/23 13:14:34;;;;;;;2.13;2.03;;;;;;;;;;4936479;29;20438;-64
2023/03/23 13:17:02;;;;;;;1.63;1.63;;;;;;;;;;4951221;28;20796;-63
2023/03/23 13:19:47;;;;;;;2.03;1.97;;;;;;;;;;4936139;29;20477;-62
2023/03/23 13:22:13;;;;;;;1.70;1.70;;;;;;;;;;4935569;29;20905;-62
2023/03/23 13:24:41;;;;;;;2.13;2.03;;;;;;;;;;4936664;29;20521;-64
2023/03/23 13:27:11;;;;;;;2.10;2.00;;;;;;;;;;4936466;29;20444;-64
2023/03/23 13:29:44;;;;;;;1.90;1.80;;;;;;;;;;4935993;29;20472;-65
2023/03/23 13:32:18;;;;;;;1.90;1.80;;;;;;;;;;4936294;29;20427;-65
2023/03/23 13:34:48;;;;;;;1.80;1.80;;;;;;;;;;4936093;29;20440;-64
2023/03/23 13:37:17;;;;;;;1.60;1.50;;;;;;;;;;4936225;29;20436;-65
2023/03/23 13:39:55;;;;;;;3.17;2.00;;;;;;;;;;4935955;29;20848;-65
2023/03/23 13:42:23;;;;;;;1.97;1.87;;;;;;;;;;4936174;29;20425;-65
2023/03/23 13:44:49;;;;;;;2.40;2.00;;;;;;;;;;4936143;29;20429;-65
2023/03/23 13:47:26;;;;;;;1.77;1.67;;;;;;;;;;4935989;29;20780;-64
2023/03/23 13:49:55;;;;;;;1.60;1.50;;;;;;;;;;4935728;29;20821;-64
2023/03/23 13:52:24;;;;;;;2.10;1.97;;;;;;;;;;4935939;29;20479;-65
2023/03/23 13:54:51;;;;;;;1.80;1.70;;;;;;;;;;4935667;29;20455;-65
2023/03/23 13:57:28;;;;;;;2.03;1.93;;;;;;;;;;4935949;29;20422;-64
2023/03/23 13:59:58;;;;;;;1.77;1.77;;;;;;;;;;4935787;29;20562;-64
2023/03/23 14:02:31;;;;;;;1.70;1.60;;;;;;;;;;4935256;29;20539;-65
2023/03/23 14:04:58;;;;;;;1.30;1.30;;;;;;;;;;4935726;29;20519;-65
2023/03/23 14:07:27;;;;;;;1.67;1.57;;;;;;;;;;4935666;29;20504;-64
2023/03/23 14:09:53;;;;;;;1.60;1.60;;;;;;;;;;4935592;29;20838;-64
2023/03/23 14:12:19;;;;;;;1.53;1.53;;;;;;;;;;4935468;29;20989;-64
2023/03/23 14:14:47;;;;;;;1.40;1.40;;;;;;;;;;4935563;29;20443;-64
2023/03/23 14:17:17;;;;;;;1.57;1.57;;;;;;;;;;4935613;29;20418;-64
2023/03/23 14:19:47;;;;;;;2.17;2.07;;;;;;;;;;4935449;29;20467;-64
2023/03/23 14:22:20;;;;;;;3.43;1.70;;;;;;;;;;4935697;29;20903;-64
2023/03/23 14:24:49;;;;;;;2.60;1.53;;;;;;;;;;4935381;29;20431;-64
2023/03/23 14:27:16;;;;;;;2.13;1.60;;;;;;;;;;4935315;29;20420;-64
2023/03/23 14:29:45;;;;;;;1.87;1.77;;;;;;;;;;4935055;29;20418;-64
2023/03/23 14:32:15;;;;;;;2.30;1.60;;;;;;;;;;4935514;29;20427;-64
2023/03/23 14:34:41;;;;;;;1.97;1.80;;;;;;;;;;4934659;29;20535;-65
2023/03/23 14:37:11;;;;;;;1.43;1.43;;;;;;;;;;4936018;29;20449;-66
2023/03/23 14:39:37;;;;;;;1.67;1.57;;;;;;;;;;4935298;29;20544;-66
2023/03/23 14:42:08;;;;;;;2.00;2.00;;;;;;;;;;4935649;29;21016;-66
2023/03/23 14:44:35;;;;;;;3.13;1.80;;;;;;;;;;4935662;29;20441;-66
2023/03/23 14:47:03;;;;;;;1.57;1.57;;;;;;;;;;4935682;29;20416;-66
2023/03/23 14:49:38;;;;;;;1.73;1.63;;;;;;;;;;4935268;29;20962;-66
2023/03/23 14:52:09;;;;;;;3.17;2.10;;;;;;;;;;4935512;29;20422;-65
2023/03/23 14:54:35;;;;;;;2.53;2.17;;;;;;;;;;4935222;29;20448;-66